createdAt,value
2019-04-14T00:00:01.257Z,9.4
2019-04-14T00:10:01.218Z,8.5
2019-04-14T00:15:02.524Z,8.4
2019-04-14T00:20:01.124Z,8.5
2019-04-14T00:25:02.353Z,8.6
2019-04-14T00:30:01.222Z,8.2
2019-04-14T00:35:01.708Z,8.1
2019-04-14T00:40:01.929Z,7.7
2019-04-14T00:45:01.281Z,7.3
2019-04-14T00:50:01.630Z,6.8
2019-04-14T00:55:01.246Z,6.6
2019-04-14T01:00:01.761Z,6.6
2019-04-14T01:05:02.511Z,6.9
2019-04-14T01:10:01.799Z,6.6
2019-04-14T01:15:01.281Z,6.2
2019-04-14T01:20:01.420Z,6.3
2019-04-14T01:30:02.552Z,6.7
2019-04-14T01:35:01.249Z,7.1
2019-04-14T01:40:01.124Z,7.8
2019-04-14T01:45:01.457Z,7.8
2019-04-14T01:50:01.746Z,7.7
2019-04-14T01:55:01.156Z,8.0
2019-04-14T02:00:01.179Z,8.2
2019-04-14T02:05:01.787Z,7.5
2019-04-14T02:10:02.183Z,7.0
2019-04-14T02:15:02.605Z,7.2
2019-04-14T02:20:01.345Z,7.5
2019-04-14T02:25:01.488Z,7.8
2019-04-14T02:30:03.523Z,7.9
2019-04-14T02:35:27.681Z,8.4
2019-04-14T02:46:30.827Z,7.7
2019-04-14T02:51:25.357Z,7.1
2019-04-14T03:10:31.337Z,7.7
2019-04-14T03:15:31.593Z,7.2
2019-04-14T03:20:24.257Z,7.1
2019-04-14T03:25:14.960Z,7.8
2019-04-14T04:10:00.828Z,7.9
2019-04-14T04:15:01.923Z,8.0
2019-04-14T04:20:00.684Z,7.0
2019-04-14T04:25:00.848Z,6.6
2019-04-14T04:30:01.636Z,6.3
2019-04-14T04:35:01.849Z,6.0
2019-04-14T04:40:00.739Z,5.8
2019-04-14T04:45:01.770Z,6.3
2019-04-14T04:50:00.651Z,6.7
2019-04-14T04:55:00.826Z,7.3
2019-04-14T05:00:00.693Z,7.3
2019-04-14T05:05:01.282Z,7.4
2019-04-14T05:20:00.864Z,5.7
2019-04-14T05:25:03.597Z,5.1
2019-04-14T05:30:00.475Z,5.1
2019-04-14T05:35:00.836Z,5.4
2019-04-14T05:40:01.476Z,5.6
2019-04-14T05:45:00.541Z,6.0
2019-04-14T05:50:00.873Z,6.4
2019-04-14T05:55:00.557Z,6.5
2019-04-14T06:00:01.624Z,6.3
2019-04-14T06:05:01.523Z,6.0
2019-04-14T06:10:04.398Z,5.6
2019-04-14T06:15:01.304Z,5.5
2019-04-14T06:20:00.449Z,5.4
2019-04-14T06:25:00.783Z,5.1
2019-04-14T06:30:00.477Z,5.2
2019-04-14T06:35:00.545Z,5.0
2019-04-14T06:45:00.624Z,5.0
2019-04-14T06:50:00.496Z,5.3
2019-04-14T06:55:03.880Z,5.1
2019-04-14T07:00:01.013Z,5.3
2019-04-14T07:05:00.570Z,5.2
2019-04-14T07:10:01.074Z,5.4
2019-04-14T07:15:01.817Z,5.7
2019-04-14T07:20:02.078Z,6.1
2019-04-14T07:30:00.621Z,5.8
2019-04-14T07:35:01.200Z,6.5
2019-04-14T07:40:00.554Z,6.3
2019-04-14T07:45:00.714Z,6.5
2019-04-14T07:50:00.473Z,6.2
2019-04-14T07:55:00.579Z,6.5
2019-04-14T08:00:00.577Z,6.3
2019-04-14T08:05:00.590Z,6.6
2019-04-14T08:10:00.474Z,6.1
2019-04-14T08:15:00.654Z,6.5
2019-04-14T08:20:00.525Z,7.2
2019-04-14T08:25:00.616Z,7.7
2019-04-14T08:30:01.828Z,7.6
2019-04-14T08:35:00.595Z,8.4
2019-04-14T08:40:00.525Z,8.5
2019-04-14T08:45:00.647Z,8.4
2019-04-14T08:50:00.501Z,8.1
2019-04-14T08:55:00.648Z,8.0
2019-04-14T09:00:01.808Z,7.3
2019-04-14T09:05:00.601Z,7.7
2019-04-14T09:10:00.538Z,7.4
2019-04-14T09:15:00.526Z,7.5
2019-04-14T09:20:00.534Z,7.8
2019-04-14T09:25:00.623Z,8.7
2019-04-14T09:30:00.565Z,9.0
2019-04-14T09:35:00.716Z,9.6
2019-04-14T09:40:00.574Z,9.8
2019-04-14T09:45:00.643Z,10.1
2019-04-14T09:55:00.612Z,10.2
2019-04-14T10:00:00.566Z,10.1
2019-04-14T10:05:00.584Z,10.4
2019-04-14T10:10:00.572Z,10.3
2019-04-14T10:15:00.661Z,10.5
2019-04-14T10:20:00.592Z,10.9
2019-04-14T10:30:00.615Z,10.9
2019-04-14T10:35:00.611Z,11.1
2019-04-14T10:40:00.571Z,11.3
2019-04-14T10:45:00.725Z,11.0
2019-04-14T10:50:00.603Z,10.7
2019-04-14T10:55:00.687Z,10.5
2019-04-14T11:00:00.978Z,10.3
2019-04-14T11:05:00.865Z,10.1
2019-04-14T11:10:00.536Z,10.2
2019-04-14T11:15:00.676Z,10.5
2019-04-14T11:20:01.343Z,11.0
2019-04-14T11:25:00.650Z,11.6
2019-04-14T11:30:00.558Z,11.6
2019-04-14T11:35:00.581Z,11.3
2019-04-14T11:40:00.539Z,11.8
2019-04-14T11:45:00.666Z,11.5
2019-04-14T11:50:00.605Z,11.7
2019-04-14T11:55:00.723Z,12.1
2019-04-14T12:00:00.629Z,12.6
2019-04-14T12:05:00.594Z,12.7
2019-04-14T12:10:00.545Z,12.6
2019-04-14T12:15:00.650Z,12.7
2019-04-14T12:20:00.939Z,12.2
2019-04-14T12:25:00.634Z,11.9
2019-04-14T12:30:01.620Z,11.1
2019-04-14T12:35:00.617Z,11.4
2019-04-14T12:40:00.576Z,10.9
2019-04-14T12:45:00.605Z,10.9
2019-04-14T12:50:00.607Z,10.7
2019-04-14T12:55:00.600Z,11.1
2019-04-14T13:00:00.616Z,10.9
2019-04-14T13:05:00.711Z,10.8
2019-04-14T13:10:00.584Z,10.6
2019-04-14T13:15:02.786Z,10.7
2019-04-14T13:20:00.624Z,10.3
2019-04-14T13:25:00.623Z,10.8
2019-04-14T13:30:00.598Z,11.0
2019-04-14T13:35:00.648Z,11.4
2019-04-14T13:40:00.625Z,11.8
2019-04-14T13:45:00.855Z,12.5
2019-04-14T13:50:00.609Z,11.8
2019-04-14T14:00:00.705Z,11.3
2019-04-14T14:05:00.644Z,10.9
2019-04-14T14:10:00.627Z,10.8
2019-04-14T14:15:00.671Z,10.7
2019-04-14T14:20:00.640Z,10.1
2019-04-14T14:25:00.642Z,10.5
2019-04-14T14:30:00.601Z,11.4
2019-04-14T14:35:01.779Z,10.9
2019-04-14T14:40:01.643Z,10.8
2019-04-14T14:45:00.719Z,11.3
2019-04-14T14:50:00.702Z,10.7
2019-04-14T14:55:00.650Z,10.1
2019-04-14T15:00:00.653Z,10.6
2019-04-14T15:05:00.648Z,10.8
2019-04-14T15:10:00.675Z,11.3
2019-04-14T15:15:00.734Z,11.7
2019-04-14T15:20:00.660Z,11.6
2019-04-14T15:25:00.675Z,11.1
2019-04-14T15:30:00.648Z,10.5
2019-04-14T15:35:00.660Z,10.4
2019-04-14T15:40:00.667Z,9.7
2019-04-14T15:45:00.723Z,9.6
2019-04-14T15:50:00.653Z,9.5
2019-04-14T15:55:01.137Z,10.0
2019-04-14T16:00:00.675Z,9.4
2019-04-14T16:05:00.742Z,9.6
2019-04-14T16:15:02.372Z,9.3
2019-04-14T16:20:00.674Z,9.2
2019-04-14T16:25:00.817Z,9.1
2019-04-14T16:30:00.658Z,8.8
2019-04-14T16:35:00.823Z,8.6
2019-04-14T16:40:00.659Z,9.0
2019-04-14T16:45:00.851Z,8.7
2019-04-14T16:50:00.694Z,9.2
2019-04-14T16:55:02.141Z,8.6
2019-04-14T17:00:00.736Z,8.1
2019-04-14T17:05:00.702Z,8.0
2019-04-14T17:10:00.728Z,9.0
2019-04-14T17:15:00.864Z,8.8
2019-04-14T17:20:05.730Z,9.6
2019-04-14T17:25:00.808Z,10.2
2019-04-14T17:30:00.666Z,10.3
2019-04-14T17:35:01.197Z,9.9
2019-04-14T17:40:00.799Z,9.7
2019-04-14T17:45:00.880Z,9.5
2019-04-14T17:50:00.716Z,9.0
2019-04-14T18:00:00.796Z,8.7
2019-04-14T18:05:01.857Z,8.5
2019-04-14T18:10:00.713Z,8.6
2019-04-14T18:15:00.721Z,8.7
2019-04-14T18:25:00.723Z,8.4
2019-04-14T18:30:00.702Z,8.2
2019-04-14T18:35:00.707Z,7.5
2019-04-14T18:40:00.681Z,7.4
2019-04-14T18:45:00.717Z,6.8
2019-04-14T18:50:00.717Z,6.1
2019-04-14T19:00:02.055Z,6.2
2019-04-14T19:05:00.735Z,5.8
2019-04-14T19:10:00.717Z,6.1
2019-04-14T19:15:00.827Z,6.5
2019-04-14T19:20:02.170Z,6.8
2019-04-14T19:25:07.682Z,6.9
2019-04-14T19:30:00.774Z,7.0
2019-04-14T19:35:00.756Z,6.6
2019-04-14T19:40:00.811Z,6.8
2019-04-14T19:45:00.811Z,6.4
2019-04-14T19:50:00.779Z,6.7
2019-04-14T19:55:00.914Z,7.0
2019-04-14T20:00:00.804Z,7.4
2019-04-14T20:05:00.761Z,7.3
2019-04-14T20:10:00.723Z,7.5
2019-04-14T20:15:01.905Z,7.1
2019-04-14T20:20:00.729Z,6.7
2019-04-14T20:30:00.856Z,6.9
2019-04-14T20:35:02.521Z,6.5
2019-04-14T20:40:00.781Z,6.6
2019-04-14T20:45:00.874Z,6.5
2019-04-14T20:50:00.792Z,6.3
2019-04-14T20:55:00.932Z,6.2
2019-04-14T21:00:00.812Z,7.1
2019-04-14T21:05:00.806Z,7.5
2019-04-14T21:15:00.901Z,7.7
2019-04-14T21:20:02.786Z,7.5
2019-04-14T21:25:01.123Z,6.9
2019-04-14T21:30:00.744Z,6.8
2019-04-14T21:35:00.813Z,6.6
2019-04-14T21:40:00.756Z,6.7
2019-04-14T21:45:00.860Z,6.4
2019-04-14T21:50:00.797Z,6.8
2019-04-14T21:55:01.762Z,6.9
2019-04-14T22:00:00.827Z,7.1
2019-04-14T22:05:00.940Z,6.8
2019-04-14T22:10:00.851Z,7.1
2019-04-14T22:15:00.934Z,6.7
2019-04-14T22:20:00.805Z,6.4
2019-04-14T22:25:00.879Z,6.5
2019-04-14T22:30:00.835Z,6.6
2019-04-14T22:35:00.964Z,6.9
2019-04-14T22:40:00.845Z,6.4
2019-04-14T22:45:00.895Z,6.4
2019-04-14T22:50:01.516Z,6.6
2019-04-14T23:00:00.807Z,6.1
2019-04-14T23:05:00.953Z,6.3
2019-04-14T23:10:00.794Z,6.1
2019-04-14T23:15:00.965Z,5.7
2019-04-14T23:20:00.819Z,5.8
2019-04-14T23:30:00.960Z,6.0
2019-04-14T23:35:00.984Z,5.9
2019-04-14T23:40:00.813Z,5.8
2019-04-14T23:45:02.205Z,5.4
2019-04-14T23:50:00.888Z,5.1
2019-04-14T23:55:00.893Z,4.9
